Time;durP1;ratioP1;P1;durP2;ratioP2;P2;SDS_P1;SDS_P2;PMS_P1;PMS_P2;Temp;Humidity;BMP_temperature;BMP_pressure;BME280_temperature;BME280_humidity;BME280_pressure;Samples;Min_cycle;Max_cycle;Signal;HPM_P1;HPM_P2
2023/06/17 00:04:13;;;;;;;5.63;5.00;;;;;;;;;;10254486;28;20066;-76
2023/06/17 00:09:15;;;;;;;6.17;5.57;;;;;;;;;;10267127;28;20346;-78
2023/06/17 00:14:16;;;;;;;5.88;5.30;;;;;;;;;;10270955;28;20336;-78
2023/06/17 00:19:17;;;;;;;5.70;4.97;;;;;;;;;;10267843;28;20043;-76
2023/06/17 00:24:21;;;;;;;4.68;4.28;;;;;;;;;;10271933;28;20046;-77
2023/06/17 00:29:21;;;;;;;5.22;4.72;;;;;;;;;;10270363;28;20057;-76
2023/06/17 00:34:21;;;;;;;4.97;4.32;;;;;;;;;;10271599;28;20042;-76
2023/06/17 00:39:22;;;;;;;5.87;4.73;;;;;;;;;;10264130;28;20575;-76
2023/06/17 00:44:22;;;;;;;5.05;4.55;;;;;;;;;;10264588;28;21282;-76
2023/06/17 00:49:34;;;;;;;6.07;5.45;;;;;;;;;;10250616;28;20042;-77
2023/06/17 00:54:36;;;;;;;5.68;5.18;;;;;;;;;;10265039;28;20051;-78
2023/06/17 00:59:37;;;;;;;5.80;5.30;;;;;;;;;;10263669;28;20050;-78
2023/06/17 01:04:46;;;;;;;6.20;5.32;;;;;;;;;;10267157;28;20511;-77
2023/06/17 01:09:50;;;;;;;6.43;5.82;;;;;;;;;;10268350;28;20102;-78
2023/06/17 01:14:51;;;;;;;6.95;6.20;;;;;;;;;;10286596;28;20049;-77
2023/06/17 01:19:53;;;;;;;7.28;5.90;;;;;;;;;;10266630;28;20108;-77
2023/06/17 01:24:56;;;;;;;6.03;5.43;;;;;;;;;;10264544;28;20770;-76
2023/06/17 01:29:56;;;;;;;8.23;6.10;;;;;;;;;;10249530;28;20175;-77
2023/06/17 01:35:00;;;;;;;8.63;6.23;;;;;;;;;;10279372;28;20644;-76
2023/06/17 01:40:00;;;;;;;6.82;6.05;;;;;;;;;;10283833;28;20974;-76
2023/06/17 01:45:05;;;;;;;6.35;5.75;;;;;;;;;;10330985;28;20050;-77
2023/06/17 01:50:06;;;;;;;6.50;5.70;;;;;;;;;;10273527;28;20241;-77
2023/06/17 01:55:07;;;;;;;6.97;6.28;;;;;;;;;;10272878;28;20148;-77
2023/06/17 02:00:08;;;;;;;6.53;5.82;;;;;;;;;;10284329;28;20053;-79
2023/06/17 02:05:09;;;;;;;7.57;6.38;;;;;;;;;;10250695;28;20532;-77
2023/06/17 02:10:10;;;;;;;6.80;6.10;;;;;;;;;;10266184;28;20062;-77
2023/06/17 02:15:11;;;;;;;6.60;6.00;;;;;;;;;;10250212;28;20503;-77
2023/06/17 02:20:13;;;;;;;7.68;6.32;;;;;;;;;;10248687;28;20090;-78
2023/06/17 02:25:14;;;;;;;;;;;;;;;;;;10231560;28;20058;-76
2023/06/17 02:30:14;;;;;;;7.32;6.13;;;;;;;;;;10260664;28;19921;-78
2023/06/17 02:35:15;;;;;;;6.95;6.30;;;;;;;;;;10264592;28;20776;-76
2023/06/17 02:40:15;;;;;;;7.38;6.43;;;;;;;;;;10262111;28;20066;-78
2023/06/17 02:45:16;;;;;;;6.25;5.60;;;;;;;;;;10261379;28;20061;-75
2023/06/17 02:50:19;;;;;;;7.17;6.13;;;;;;;;;;10245069;28;20043;-78
2023/06/17 02:55:20;;;;;;;7.63;6.80;;;;;;;;;;10250912;28;20328;-77
2023/06/17 03:00:20;;;;;;;7.57;6.88;;;;;;;;;;10258898;28;20039;-77
2023/06/17 03:05:23;;;;;;;6.95;6.35;;;;;;;;;;10274555;28;20082;-76
2023/06/17 03:10:24;;;;;;;;;;;;;;;;;;10265363;28;20050;-77
2023/06/17 03:15:33;;;;;;;6.47;5.82;;;;;;;;;;10257529;28;20267;-74
2023/06/17 03:20:34;;;;;;;6.95;6.35;;;;;;;;;;10254144;28;20597;-75
2023/06/17 03:25:35;;;;;;;7.53;6.80;;;;;;;;;;10275303;28;20054;-75
2023/06/17 03:30:38;;;;;;;7.03;6.28;;;;;;;;;;10255084;28;20035;-76
2023/06/17 03:35:39;;;;;;;7.22;6.57;;;;;;;;;;10239574;28;20463;-74
2023/06/17 03:40:39;;;;;;;8.07;7.18;;;;;;;;;;10254253;28;20057;-76
2023/06/17 03:45:41;;;;;;;8.40;7.18;;;;;;;;;;10280820;28;20058;-75
2023/06/17 03:50:42;;;;;;;7.63;6.85;;;;;;;;;;10279170;28;20050;-75
2023/06/17 03:55:43;;;;;;;7.95;7.15;;;;;;;;;;10271287;28;20566;-76
2023/06/17 04:00:43;;;;;;;7.22;6.53;;;;;;;;;;10252159;28;20055;-75
2023/06/17 04:05:44;;;;;;;8.38;7.57;;;;;;;;;;10262144;28;20051;-75
2023/06/17 04:10:47;;;;;;;7.80;7.00;;;;;;;;;;10250293;28;20691;-74
2023/06/17 04:15:47;;;;;;;8.27;7.40;;;;;;;;;;10262659;28;20058;-75
2023/06/17 04:20:49;;;;;;;8.10;7.25;;;;;;;;;;10265660;28;20050;-75
2023/06/17 04:25:50;;;;;;;8.20;7.37;;;;;;;;;;10254244;28;20104;-74
2023/06/17 04:30:51;;;;;;;8.63;7.30;;;;;;;;;;10265297;28;20047;-76
2023/06/17 04:35:55;;;;;;;7.00;6.30;;;;;;;;;;10257417;28;20098;-75
2023/06/17 04:40:56;;;;;;;8.27;6.70;;;;;;;;;;10254016;28;20372;-74
2023/06/17 04:46:00;;;;;;;7.40;6.70;;;;;;;;;;10251942;28;20065;-76
2023/06/17 04:51:02;;;;;;;8.53;7.43;;;;;;;;;;10254493;28;20063;-75
2023/06/17 04:56:06;;;;;;;8.65;7.85;;;;;;;;;;10243968;28;20906;-76
2023/06/17 05:01:10;;;;;;;8.05;6.55;;;;;;;;;;10252418;28;20046;-76
2023/06/17 05:06:10;;;;;;;8.38;7.57;;;;;;;;;;10261148;28;20842;-76
2023/06/17 05:11:11;;;;;;;8.63;7.75;;;;;;;;;;10270898;28;20051;-75
2023/06/17 05:16:14;;;;;;;9.90;8.73;;;;;;;;;;10251469;28;20061;-76
2023/06/17 05:21:20;;;;;;;9.40;8.50;;;;;;;;;;10237653;28;20134;-76
2023/06/17 05:26:21;;;;;;;9.18;8.27;;;;;;;;;;10259357;28;20807;-79
2023/06/17 05:31:22;;;;;;;10.20;8.75;;;;;;;;;;10266923;28;20073;-78
2023/06/17 05:36:23;;;;;;;9.73;8.68;;;;;;;;;;10231311;28;20046;-78
2023/06/17 05:41:23;;;;;;;10.60;9.47;;;;;;;;;;10274245;28;20130;-77
2023/06/17 05:46:24;;;;;;;10.25;9.35;;;;;;;;;;10311407;28;20035;-76
2023/06/17 05:51:26;;;;;;;11.02;9.93;;;;;;;;;;10313154;28;20042;-77
2023/06/17 05:56:27;;;;;;;11.10;9.87;;;;;;;;;;10332158;28;20054;-76
2023/06/17 06:01:29;;;;;;;10.23;9.23;;;;;;;;;;10263023;28;20476;-76
2023/06/17 06:06:31;;;;;;;10.73;9.40;;;;;;;;;;10255750;28;20684;-77
2023/06/17 06:11:32;;;;;;;12.43;11.13;;;;;;;;;;10252747;28;20045;-76
2023/06/17 06:16:33;;;;;;;11.80;10.70;;;;;;;;;;10248873;28;20364;-76
2023/06/17 06:21:34;;;;;;;10.77;9.68;;;;;;;;;;10265566;28;20061;-79
2023/06/17 06:26:34;;;;;;;10.77;9.68;;;;;;;;;;10251756;28;20259;-73
2023/06/17 06:31:35;;;;;;;9.70;8.70;;;;;;;;;;10245185;28;20389;-73
2023/06/17 06:36:36;;;;;;;8.68;7.82;;;;;;;;;;10263185;28;20042;-72
2023/06/17 06:41:37;;;;;;;8.80;7.85;;;;;;;;;;10260130;28;20138;-75
2023/06/17 06:46:57;;;;;;;9.85;8.85;;;;;;;;;;10243471;28;20142;-75
2023/06/17 06:51:57;;;;;;;9.23;8.40;;;;;;;;;;10262547;28;20088;-80
2023/06/17 06:56:58;;;;;;;9.82;8.70;;;;;;;;;;10256249;28;20077;-74
2023/06/17 07:02:00;;;;;;;9.88;8.88;;;;;;;;;;10248340;28;20046;-76
2023/06/17 07:07:02;;;;;;;8.77;7.80;;;;;;;;;;10233159;28;20062;-74
2023/06/17 07:12:08;;;;;;;10.77;9.65;;;;;;;;;;10252816;28;20142;-75
2023/06/17 07:17:13;;;;;;;9.05;8.15;;;;;;;;;;10251358;28;20050;-74
2023/06/17 07:22:15;;;;;;;10.85;9.65;;;;;;;;;;10249586;28;20051;-73
2023/06/17 07:27:16;;;;;;;9.73;8.77;;;;;;;;;;10243927;28;20050;-72
2023/06/17 07:32:17;;;;;;;7.82;7.13;;;;;;;;;;10250572;28;20050;-69
2023/06/17 07:37:17;;;;;;;9.27;8.13;;;;;;;;;;10254181;28;20054;-67
2023/06/17 07:42:18;;;;;;;9.35;7.85;;;;;;;;;;10255057;28;20479;-69
2023/06/17 07:47:18;;;;;;;10.30;9.10;;;;;;;;;;10270109;28;20145;-72
2023/06/17 07:52:19;;;;;;;7.87;7.17;;;;;;;;;;10251851;28;20298;-72
2023/06/17 07:57:19;;;;;;;8.82;7.68;;;;;;;;;;10265196;28;20289;-73
2023/06/17 08:02:21;;;;;;;10.10;8.70;;;;;;;;;;10267411;28;20039;-74
2023/06/17 08:07:21;;;;;;;8.35;7.47;;;;;;;;;;10249836;28;20059;-74
2023/06/17 08:12:21;;;;;;;7.03;6.33;;;;;;;;;;10266890;28;20043;-73
2023/06/17 08:17:22;;;;;;;7.47;6.77;;;;;;;;;;10255912;28;21082;-76
2023/06/17 08:22:22;;;;;;;7.37;6.67;;;;;;;;;;10256077;28;20105;-77
2023/06/17 08:27:24;;;;;;;7.13;6.40;;;;;;;;;;10258650;28;20587;-77
2023/06/17 08:32:24;;;;;;;8.97;6.70;;;;;;;;;;10252840;28;20065;-75
2023/06/17 08:37:25;;;;;;;7.40;5.82;;;;;;;;;;10252821;28;20051;-77
2023/06/17 08:42:26;;;;;;;6.85;5.90;;;;;;;;;;10272589;28;20159;-78
2023/06/17 08:47:27;;;;;;;6.30;5.73;;;;;;;;;;10248324;28;20066;-74
2023/06/17 08:52:28;;;;;;;6.22;5.63;;;;;;;;;;10253128;28;20794;-77
2023/06/17 08:57:31;;;;;;;7.00;5.43;;;;;;;;;;10266063;28;20102;-75
2023/06/17 09:07:46;;;;;;;7.10;5.38;;;;;;;;;;10285021;28;20051;-77
2023/06/17 09:12:46;;;;;;;6.07;5.47;;;;;;;;;;10266648;28;20038;-75
2023/06/17 09:17:48;;;;;;;6.60;5.60;;;;;;;;;;10254848;28;20055;-77
2023/06/17 09:22:48;;;;;;;7.07;5.60;;;;;;;;;;10267311;28;20318;-75
2023/06/17 09:27:54;;;;;;;5.82;5.32;;;;;;;;;;10262105;28;20058;-76
2023/06/17 09:32:55;;;;;;;5.80;5.20;;;;;;;;;;10272944;28;20042;-75
2023/06/17 09:37:55;;;;;;;5.93;5.32;;;;;;;;;;10276684;28;20483;-80
2023/06/17 09:42:58;;;;;;;6.70;5.75;;;;;;;;;;10270183;28;20039;-79
2023/06/17 09:48:03;;;;;;;5.85;5.35;;;;;;;;;;10291360;28;20054;-76
2023/06/17 09:53:05;;;;;;;7.65;5.20;;;;;;;;;;10274036;28;20047;-74
2023/06/17 09:58:06;;;;;;;6.07;5.33;;;;;;;;;;10263164;28;20046;-78
2023/06/17 10:03:07;;;;;;;5.60;5.10;;;;;;;;;;10267979;28;20057;-78
2023/06/17 10:08:07;;;;;;;5.67;5.07;;;;;;;;;;10254953;28;20539;-78
2023/06/17 10:13:09;;;;;;;5.68;5.20;;;;;;;;;;10262244;28;20301;-81
2023/06/17 10:18:10;;;;;;;6.80;5.37;;;;;;;;;;10246773;28;20043;-79
2023/06/17 10:23:11;;;;;;;5.93;5.40;;;;;;;;;;10251778;28;20339;-80
2023/06/17 10:28:13;;;;;;;5.70;5.10;;;;;;;;;;10259417;28;20480;-79
2023/06/17 10:33:14;;;;;;;8.02;5.35;;;;;;;;;;10258133;28;20061;-76
2023/06/17 10:38:27;;;;;;;5.18;4.72;;;;;;;;;;10259775;28;20043;-76
2023/06/17 10:43:34;;;;;;;6.38;5.72;;;;;;;;;;10263251;28;20058;-77
2023/06/17 10:48:36;;;;;;;5.60;5.10;;;;;;;;;;10267074;28;20039;-78
2023/06/17 10:53:37;;;;;;;6.80;5.80;;;;;;;;;;10260171;28;20061;-76
2023/06/17 10:58:42;;;;;;;5.53;5.03;;;;;;;;;;10274162;28;20053;-75
2023/06/17 11:03:44;;;;;;;8.65;5.00;;;;;;;;;;10251832;28;20121;-76
2023/06/17 11:08:47;;;;;;;4.68;4.28;;;;;;;;;;10251088;28;20062;-76
2023/06/17 11:13:50;;;;;;;7.22;5.38;;;;;;;;;;10268055;28;20038;-79
2023/06/17 11:18:52;;;;;;;4.88;4.47;;;;;;;;;;10280550;28;20049;-77
2023/06/17 11:23:53;;;;;;;4.68;4.28;;;;;;;;;;10277660;28;20101;-78
2023/06/17 11:28:55;;;;;;;5.22;4.70;;;;;;;;;;10264531;28;20047;-77
2023/06/17 11:33:56;;;;;;;;;;;;;;;;;;10321477;28;20026;-80
2023/06/17 11:38:56;;;;;;;4.95;4.55;;;;;;;;;;10291250;28;20283;-79
2023/06/17 11:43:57;;;;;;;5.83;5.13;;;;;;;;;;10269386;28;20061;-77
2023/06/17 11:48:57;;;;;;;6.70;4.73;;;;;;;;;;10292448;28;20499;-78
2023/06/17 11:54:03;;;;;;;6.00;4.90;;;;;;;;;;10257149;28;20043;-78
2023/06/17 11:59:03;;;;;;;6.00;5.40;;;;;;;;;;10267663;28;20046;-80
2023/06/17 12:04:03;;;;;;;5.20;4.70;;;;;;;;;;10269602;28;20078;-77
2023/06/17 12:09:08;;;;;;;5.33;4.83;;;;;;;;;;10277713;28;20463;-77
2023/06/17 12:14:10;;;;;;;7.28;4.70;;;;;;;;;;10237068;28;20051;-78
2023/06/17 12:19:19;;;;;;;6.10;5.50;;;;;;;;;;10265315;28;20050;-79
2023/06/17 12:24:20;;;;;;;5.93;5.20;;;;;;;;;;10267428;28;20130;-77
2023/06/17 12:29:44;;;;;;;5.57;4.73;;;;;;;;;;10281019;28;20047;-77
2023/06/17 12:34:51;;;;;;;5.10;4.60;;;;;;;;;;10271806;28;20173;-78
2023/06/17 12:39:52;;;;;;;5.33;4.83;;;;;;;;;;10273762;28;20054;-78
2023/06/17 12:44:53;;;;;;;5.15;4.75;;;;;;;;;;10275505;28;20062;-80
2023/06/17 12:49:55;;;;;;;5.95;5.05;;;;;;;;;;10273340;28;20674;-75
2023/06/17 12:54:57;;;;;;;5.30;4.80;;;;;;;;;;10253384;28;20053;-79
2023/06/17 12:59:59;;;;;;;4.72;4.28;;;;;;;;;;10257493;28;20050;-77
2023/06/17 13:05:00;;;;;;;5.20;4.68;;;;;;;;;;10267420;28;20419;-78
2023/06/17 13:10:03;;;;;;;5.97;4.80;;;;;;;;;;10274648;28;20042;-80
2023/06/17 13:15:07;;;;;;;5.60;4.70;;;;;;;;;;10279346;28;20062;-81
2023/06/17 13:20:08;;;;;;;5.57;4.80;;;;;;;;;;10290083;28;20070;-78
2023/06/17 13:25:11;;;;;;;5.70;4.93;;;;;;;;;;10267386;28;20057;-79
2023/06/17 13:30:11;;;;;;;8.57;5.63;;;;;;;;;;10281615;28;20321;-80
2023/06/17 13:35:12;;;;;;;6.83;4.97;;;;;;;;;;10281236;28;20150;-80
2023/06/17 13:40:12;;;;;;;5.97;5.00;;;;;;;;;;10267101;28;20861;-80
2023/06/17 13:45:13;;;;;;;5.53;5.00;;;;;;;;;;10263293;28;20113;-77
2023/06/17 13:50:13;;;;;;;6.27;5.03;;;;;;;;;;10264140;28;20047;-78
2023/06/17 13:55:13;;;;;;;6.13;5.27;;;;;;;;;;10276265;28;20974;-77
2023/06/17 14:00:17;;;;;;;5.27;4.77;;;;;;;;;;10275499;28;20071;-79
2023/06/17 14:05:20;;;;;;;6.60;5.53;;;;;;;;;;10268190;28;20046;-77
2023/06/17 14:10:28;;;;;;;6.82;5.45;;;;;;;;;;10276479;28;20050;-78
2023/06/17 14:15:29;;;;;;;5.10;4.70;;;;;;;;;;10290658;28;20064;-78
2023/06/17 14:20:29;;;;;;;4.90;4.40;;;;;;;;;;10256754;28;20058;-78
2023/06/17 14:25:30;;;;;;;5.77;4.73;;;;;;;;;;10270395;28;20046;-77
2023/06/17 14:30:30;;;;;;;4.93;4.43;;;;;;;;;;10276650;28;20050;-77
2023/06/17 14:35:31;;;;;;;5.10;4.70;;;;;;;;;;10274131;28;20042;-79
2023/06/17 14:40:32;;;;;;;5.67;4.67;;;;;;;;;;10264606;28;20039;-77
2023/06/17 14:45:32;;;;;;;6.53;4.40;;;;;;;;;;10287598;28;20382;-80
2023/06/17 14:50:33;;;;;;;8.03;4.80;;;;;;;;;;10261449;28;20042;-80
2023/06/17 14:55:33;;;;;;;9.53;4.73;;;;;;;;;;10282990;28;20046;-80
2023/06/17 15:00:33;;;;;;;6.27;4.93;;;;;;;;;;10272221;28;20051;-81
2023/06/17 15:05:36;;;;;;;5.87;5.00;;;;;;;;;;10272284;28;20051;-82
2023/06/17 15:10:36;;;;;;;6.13;4.55;;;;;;;;;;10275083;28;20098;-83
2023/06/17 15:15:36;;;;;;;5.10;4.60;;;;;;;;;;10271325;28;20054;-80
2023/06/17 15:20:37;;;;;;;4.87;4.20;;;;;;;;;;10265528;28;20053;-80
2023/06/17 15:25:37;;;;;;;5.40;4.90;;;;;;;;;;10273923;28;20050;-83
2023/06/17 15:30:37;;;;;;;5.40;4.90;;;;;;;;;;10250957;28;20054;-80
2023/06/17 15:35:38;;;;;;;6.10;4.50;;;;;;;;;;10274247;28;20050;-83
2023/06/17 15:40:38;;;;;;;5.47;4.83;;;;;;;;;;10282260;28;20125;-80
2023/06/17 15:45:38;;;;;;;6.30;5.00;;;;;;;;;;10270788;28;20146;-82
2023/06/17 15:50:39;;;;;;;5.17;4.67;;;;;;;;;;10262517;28;20055;-81
2023/06/17 15:55:39;;;;;;;5.17;4.67;;;;;;;;;;10276727;28;20050;-82
2023/06/17 16:00:41;;;;;;;5.30;4.67;;;;;;;;;;10280345;28;20046;-82
2023/06/17 16:05:41;;;;;;;;;;;;;;;;;;10269006;28;20055;-81
2023/06/17 16:10:43;;;;;;;4.97;4.50;;;;;;;;;;10276494;28;19921;-83
2023/06/17 16:15:43;;;;;;;5.20;4.70;;;;;;;;;;10300190;28;20062;-83
2023/06/17 16:20:44;;;;;;;6.17;4.53;;;;;;;;;;10294244;28;20120;-80
2023/06/17 16:25:44;;;;;;;5.30;4.80;;;;;;;;;;10272220;28;20054;-81
2023/06/17 16:30:45;;;;;;;5.67;4.77;;;;;;;;;;10286313;28;20046;-79
2023/06/17 16:35:45;;;;;;;6.07;5.07;;;;;;;;;;10273908;28;20078;-82
2023/06/17 16:40:46;;;;;;;5.00;4.50;;;;;;;;;;10267885;28;21022;-80
2023/06/17 16:45:46;;;;;;;5.27;4.70;;;;;;;;;;10273417;28;20831;-81
2023/06/17 16:50:46;;;;;;;7.23;6.47;;;;;;;;;;10265408;28;20058;-81
2023/06/17 16:55:47;;;;;;;5.57;4.70;;;;;;;;;;10307934;28;20043;-81
2023/06/17 17:00:47;;;;;;;6.07;5.37;;;;;;;;;;10331252;28;20066;-82
2023/06/17 17:05:47;;;;;;;6.30;5.27;;;;;;;;;;10333911;28;20066;-85
2023/06/17 17:10:51;;;;;;;5.47;4.40;;;;;;;;;;10325343;28;20480;-81
2023/06/17 17:15:51;;;;;;;5.57;5.07;;;;;;;;;;10282346;28;20043;-80
2023/06/17 17:20:51;;;;;;;6.30;4.80;;;;;;;;;;10277916;28;20051;-81
2023/06/17 17:25:52;;;;;;;5.13;4.63;;;;;;;;;;10260201;28;20058;-81
2023/06/17 17:30:52;;;;;;;5.53;4.70;;;;;;;;;;10254109;28;20054;-82
2023/06/17 17:35:52;;;;;;;5.73;5.23;;;;;;;;;;10271418;28;20047;-81
2023/06/17 17:40:53;;;;;;;5.23;4.73;;;;;;;;;;10272168;28;20046;-83
2023/06/17 17:45:53;;;;;;;5.37;4.83;;;;;;;;;;10268037;28;20534;-82
2023/06/17 17:50:54;;;;;;;5.50;4.93;;;;;;;;;;10266837;28;20046;-80
2023/06/17 17:55:54;;;;;;;5.97;4.43;;;;;;;;;;10285429;28;20042;-81
2023/06/17 18:00:58;;;;;;;4.70;4.30;;;;;;;;;;10259090;28;20194;-82
2023/06/17 18:05:59;;;;;;;5.80;4.50;;;;;;;;;;10269093;28;20054;-80
2023/06/17 18:10:59;;;;;;;6.35;5.10;;;;;;;;;;10251320;28;20502;-81
2023/06/17 18:15:59;;;;;;;5.70;5.05;;;;;;;;;;10271853;28;20564;-82
2023/06/17 18:21:00;;;;;;;5.07;4.50;;;;;;;;;;10269890;28;20375;-82
2023/06/17 18:26:00;;;;;;;5.90;4.68;;;;;;;;;;10259539;28;20082;-81
2023/06/17 18:31:01;;;;;;;5.28;4.43;;;;;;;;;;10255974;28;20061;-83
2023/06/17 18:36:02;;;;;;;5.80;5.13;;;;;;;;;;10262019;28;20058;-81
2023/06/17 18:41:02;;;;;;;6.45;5.82;;;;;;;;;;10295348;28;20137;-82
2023/06/17 18:46:03;;;;;;;6.17;5.57;;;;;;;;;;10269728;28;20061;-82
2023/06/17 18:51:04;;;;;;;6.70;6.05;;;;;;;;;;10283844;28;20057;-80
2023/06/17 18:56:05;;;;;;;8.00;6.67;;;;;;;;;;10275717;28;20054;-82
2023/06/17 19:01:05;;;;;;;6.03;5.43;;;;;;;;;;10289340;28;20054;-82
2023/06/17 19:06:06;;;;;;;6.03;5.43;;;;;;;;;;10276775;28;20062;-76
2023/06/17 19:11:06;;;;;;;8.40;7.10;;;;;;;;;;10256020;28;20043;-81
2023/06/17 19:16:06;;;;;;;7.07;6.37;;;;;;;;;;10246342;28;20448;-79
2023/06/17 19:21:07;;;;;;;8.20;7.40;;;;;;;;;;10273120;28;20050;-78
2023/06/17 19:26:10;;;;;;;17.35;13.38;;;;;;;;;;10269961;28;20051;-79
2023/06/17 19:31:10;;;;;;;10.00;8.67;;;;;;;;;;10233791;28;20039;-77
2023/06/17 19:36:10;;;;;;;11.00;8.47;;;;;;;;;;10251576;28;20101;-82
2023/06/17 19:41:11;;;;;;;8.83;7.63;;;;;;;;;;10244281;28;20046;-79
2023/06/17 19:46:12;;;;;;;9.82;8.10;;;;;;;;;;10250891;28;20047;-81
2023/06/17 19:51:12;;;;;;;8.48;7.57;;;;;;;;;;10256211;28;20467;-82
2023/06/17 19:56:13;;;;;;;9.77;7.20;;;;;;;;;;10268035;28;20487;-81
2023/06/17 20:01:15;;;;;;;7.85;6.72;;;;;;;;;;10283586;28;20046;-80
2023/06/17 20:06:16;;;;;;;9.57;7.03;;;;;;;;;;10310634;28;20113;-80
2023/06/17 20:11:16;;;;;;;9.87;6.93;;;;;;;;;;10329096;28;20527;-85
2023/06/17 20:16:18;;;;;;;11.43;8.15;;;;;;;;;;10323473;28;20049;-79
2023/06/17 20:21:20;;;;;;;13.43;10.97;;;;;;;;;;10263036;28;20054;-81
2023/06/17 20:26:20;;;;;;;11.97;10.00;;;;;;;;;;10263060;28;20070;-82
2023/06/17 20:31:21;;;;;;;10.90;9.63;;;;;;;;;;10264370;28;20664;-79
2023/06/17 20:36:21;;;;;;;10.10;8.57;;;;;;;;;;10257576;28;20302;-83
2023/06/17 20:41:21;;;;;;;11.27;8.80;;;;;;;;;;10284339;28;20042;-82
2023/06/17 20:46:22;;;;;;;11.13;8.97;;;;;;;;;;10311088;28;20051;-81
2023/06/17 20:51:22;;;;;;;12.70;10.33;;;;;;;;;;10282627;28;20049;-80
2023/06/17 20:56:24;;;;;;;12.60;11.27;;;;;;;;;;10267683;28;20294;-79
2023/06/17 21:01:25;;;;;;;14.48;12.98;;;;;;;;;;10260916;28;20051;-78
2023/06/17 21:06:25;;;;;;;14.50;13.00;;;;;;;;;;10271924;28;20047;-77
2023/06/17 21:11:25;;;;;;;15.02;13.52;;;;;;;;;;10271169;28;20046;-79
2023/06/17 21:16:26;;;;;;;15.50;13.90;;;;;;;;;;10267413;28;20054;-77
2023/06/17 21:21:27;;;;;;;14.20;12.70;;;;;;;;;;10264283;28;20050;-78
2023/06/17 21:26:27;;;;;;;16.83;15.23;;;;;;;;;;10285091;28;20065;-81
2023/06/17 21:31:27;;;;;;;17.83;16.10;;;;;;;;;;10259444;28;20100;-77
2023/06/17 21:36:28;;;;;;;17.67;15.80;;;;;;;;;;10279188;28;21209;-78
2023/06/17 21:41:28;;;;;;;17.30;15.60;;;;;;;;;;10263531;28;20380;-80
2023/06/17 21:46:30;;;;;;;17.73;16.03;;;;;;;;;;10270101;28;20324;-79
2023/06/17 21:51:30;;;;;;;16.08;14.38;;;;;;;;;;10251612;28;20562;-77
2023/06/17 21:56:30;;;;;;;15.93;14.40;;;;;;;;;;10279855;28;20059;-79
2023/06/17 22:01:31;;;;;;;15.63;14.03;;;;;;;;;;10276027;28;20130;-79
2023/06/17 22:06:31;;;;;;;14.95;13.40;;;;;;;;;;10275134;28;20349;-80
2023/06/17 22:11:32;;;;;;;13.07;11.77;;;;;;;;;;10274650;28;20053;-80
2023/06/17 22:16:32;;;;;;;14.30;12.13;;;;;;;;;;10261458;28;20050;-82
2023/06/17 22:21:32;;;;;;;13.68;12.27;;;;;;;;;;10281049;28;20051;-81
2023/06/17 22:26:33;;;;;;;12.17;10.70;;;;;;;;;;10244877;28;20047;-81
2023/06/17 22:31:33;;;;;;;11.20;10.00;;;;;;;;;;10271290;28;20290;-82
2023/06/17 22:36:34;;;;;;;12.40;10.43;;;;;;;;;;10272283;28;20414;-79
2023/06/17 22:41:35;;;;;;;10.95;9.80;;;;;;;;;;10267353;28;20120;-80
2023/06/17 22:46:38;;;;;;;10.82;9.75;;;;;;;;;;10269176;28;20415;-79
2023/06/17 22:51:38;;;;;;;11.73;10.45;;;;;;;;;;10278673;28;20675;-80
2023/06/17 22:56:39;;;;;;;11.88;10.60;;;;;;;;;;10271142;28;20136;-77
2023/06/17 23:01:40;;;;;;;11.80;10.45;;;;;;;;;;10262335;28;20051;-83
2023/06/17 23:06:40;;;;;;;13.13;10.90;;;;;;;;;;10280105;28;20850;-80
2023/06/17 23:11:42;;;;;;;11.27;10.10;;;;;;;;;;10273753;28;20047;-82
2023/06/17 23:16:42;;;;;;;11.52;10.32;;;;;;;;;;10306534;28;20126;-81
2023/06/17 23:21:44;;;;;;;12.83;11.00;;;;;;;;;;10322066;28;20027;-79
2023/06/17 23:26:44;;;;;;;13.38;10.95;;;;;;;;;;10322720;28;20122;-82
2023/06/17 23:31:45;;;;;;;12.55;11.25;;;;;;;;;;10329312;28;20037;-78
2023/06/17 23:36:46;;;;;;;13.25;11.25;;;;;;;;;;10337667;28;20034;-79
2023/06/17 23:41:46;;;;;;;13.07;11.70;;;;;;;;;;10330616;28;20045;-80
2023/06/17 23:46:47;;;;;;;15.68;11.27;;;;;;;;;;10338604;28;20047;-81
2023/06/17 23:51:49;;;;;;;12.88;11.57;;;;;;;;;;10305905;28;20145;-81
2023/06/17 23:56:49;;;;;;;13.30;11.85;;;;;;;;;;10274933;28;20046;-77
